sensor_id;sensor_type;location;lat;lon;timestamp;P1;durP1;ratioP1;P2;durP2;ratioP2
76691;SDS011;65624;44.498;0.166;2022-12-18T00:13:23;37.10;;;16.93;;
76691;SDS011;65624;44.498;0.166;2022-12-18T00:27:13;39.77;;;16.97;;
76691;SDS011;65624;44.498;0.166;2022-12-18T00:41:04;51.63;;;17.00;;
76691;SDS011;65624;44.498;0.166;2022-12-18T00:54:55;39.03;;;18.37;;
76691;SDS011;65624;44.498;0.166;2022-12-18T01:08:47;46.60;;;18.27;;
76691;SDS011;65624;44.498;0.166;2022-12-18T01:22:38;39.80;;;18.87;;
76691;SDS011;65624;44.498;0.166;2022-12-18T01:36:28;43.93;;;17.80;;
76691;SDS011;65624;44.498;0.166;2022-12-18T01:50:20;52.87;;;19.53;;
76691;SDS011;65624;44.498;0.166;2022-12-18T02:18:03;42.70;;;18.57;;
76691;SDS011;65624;44.498;0.166;2022-12-18T02:31:55;39.80;;;17.00;;
76691;SDS011;65624;44.498;0.166;2022-12-18T02:45:47;35.53;;;14.87;;
76691;SDS011;65624;44.498;0.166;2022-12-18T02:59:37;37.73;;;15.93;;
76691;SDS011;65624;44.498;0.166;2022-12-18T03:13:30;29.63;;;14.57;;
76691;SDS011;65624;44.498;0.166;2022-12-18T03:27:18;35.47;;;14.67;;
76691;SDS011;65624;44.498;0.166;2022-12-18T03:41:11;34.57;;;14.90;;
76691;SDS011;65624;44.498;0.166;2022-12-18T03:55:00;47.53;;;19.93;;
76691;SDS011;65624;44.498;0.166;2022-12-18T04:08:51;37.33;;;16.33;;
76691;SDS011;65624;44.498;0.166;2022-12-18T04:22:42;38.50;;;15.80;;
76691;SDS011;65624;44.498;0.166;2022-12-18T04:36:32;32.07;;;14.30;;
76691;SDS011;65624;44.498;0.166;2022-12-18T04:50:22;40.07;;;15.53;;
76691;SDS011;65624;44.498;0.166;2022-12-18T05:04:13;26.37;;;11.00;;
76691;SDS011;65624;44.498;0.166;2022-12-18T05:18:05;25.47;;;11.43;;
76691;SDS011;65624;44.498;0.166;2022-12-18T05:31:56;30.77;;;10.40;;
76691;SDS011;65624;44.498;0.166;2022-12-18T05:45:46;20.47;;;7.70;;
76691;SDS011;65624;44.498;0.166;2022-12-18T05:59:38;22.43;;;9.13;;
76691;SDS011;65624;44.498;0.166;2022-12-18T06:27:18;17.47;;;8.00;;
76691;SDS011;65624;44.498;0.166;2022-12-18T06:41:09;16.47;;;7.93;;
76691;SDS011;65624;44.498;0.166;2022-12-18T06:54:59;17.00;;;7.43;;
76691;SDS011;65624;44.498;0.166;2022-12-18T07:08:52;15.70;;;8.43;;
76691;SDS011;65624;44.498;0.166;2022-12-18T07:22:41;14.80;;;7.50;;
76691;SDS011;65624;44.498;0.166;2022-12-18T07:36:32;19.90;;;8.27;;
76691;SDS011;65624;44.498;0.166;2022-12-18T08:04:15;14.10;;;6.93;;
76691;SDS011;65624;44.498;0.166;2022-12-18T08:18:12;11.57;;;5.63;;
76691;SDS011;65624;44.498;0.166;2022-12-18T08:45:51;12.90;;;6.93;;
76691;SDS011;65624;44.498;0.166;2022-12-18T08:59:43;9.17;;;6.27;;
76691;SDS011;65624;44.498;0.166;2022-12-18T09:13:34;13.23;;;8.17;;
76691;SDS011;65624;44.498;0.166;2022-12-18T09:27:25;10.43;;;5.80;;
76691;SDS011;65624;44.498;0.166;2022-12-18T09:41:23;8.53;;;4.70;;
76691;SDS011;65624;44.498;0.166;2022-12-18T09:55:09;8.20;;;5.37;;
76691;SDS011;65624;44.498;0.166;2022-12-18T10:08:59;6.77;;;4.40;;
76691;SDS011;65624;44.498;0.166;2022-12-18T10:22:50;5.27;;;4.30;;
76691;SDS011;65624;44.498;0.166;2022-12-18T10:36:40;5.07;;;3.57;;
76691;SDS011;65624;44.498;0.166;2022-12-18T10:50:32;5.13;;;3.63;;
76691;SDS011;65624;44.498;0.166;2022-12-18T11:04:24;7.57;;;4.67;;
76691;SDS011;65624;44.498;0.166;2022-12-18T11:18:16;5.00;;;3.67;;
76691;SDS011;65624;44.498;0.166;2022-12-18T11:32:19;5.37;;;3.23;;
76691;SDS011;65624;44.498;0.166;2022-12-18T11:45:56;5.27;;;3.87;;
76691;SDS011;65624;44.498;0.166;2022-12-18T11:59:48;5.23;;;3.40;;
76691;SDS011;65624;44.498;0.166;2022-12-18T12:13:39;5.30;;;3.30;;
76691;SDS011;65624;44.498;0.166;2022-12-18T12:27:28;7.00;;;4.27;;
76691;SDS011;65624;44.498;0.166;2022-12-18T12:41:17;4.17;;;3.17;;
76691;SDS011;65624;44.498;0.166;2022-12-18T12:55:07;5.27;;;3.60;;
76691;SDS011;65624;44.498;0.166;2022-12-18T13:08:56;5.00;;;3.30;;
76691;SDS011;65624;44.498;0.166;2022-12-18T13:22:45;7.03;;;3.50;;
76691;SDS011;65624;44.498;0.166;2022-12-18T13:36:36;3.77;;;3.30;;
76691;SDS011;65624;44.498;0.166;2022-12-18T13:50:27;3.93;;;2.90;;
76691;SDS011;65624;44.498;0.166;2022-12-18T14:04:25;4.40;;;2.87;;
76691;SDS011;65624;44.498;0.166;2022-12-18T14:18:19;7.37;;;3.27;;
76691;SDS011;65624;44.498;0.166;2022-12-18T14:32:06;5.70;;;3.20;;
76691;SDS011;65624;44.498;0.166;2022-12-18T14:45:51;3.87;;;2.57;;
76691;SDS011;65624;44.498;0.166;2022-12-18T14:59:37;3.80;;;2.57;;
76691;SDS011;65624;44.498;0.166;2022-12-18T15:13:25;6.37;;;2.80;;
76691;SDS011;65624;44.498;0.166;2022-12-18T15:27:22;5.53;;;3.20;;
76691;SDS011;65624;44.498;0.166;2022-12-18T15:41:04;6.97;;;3.83;;
76691;SDS011;65624;44.498;0.166;2022-12-18T15:54:55;5.20;;;3.00;;
76691;SDS011;65624;44.498;0.166;2022-12-18T16:08:44;4.80;;;3.00;;
76691;SDS011;65624;44.498;0.166;2022-12-18T16:22:35;6.43;;;3.90;;
76691;SDS011;65624;44.498;0.166;2022-12-18T16:36:26;7.97;;;4.57;;
76691;SDS011;65624;44.498;0.166;2022-12-18T17:04:07;4.90;;;3.13;;
76691;SDS011;65624;44.498;0.166;2022-12-18T17:17:58;5.70;;;3.90;;
76691;SDS011;65624;44.498;0.166;2022-12-18T17:31:47;8.70;;;4.30;;
76691;SDS011;65624;44.498;0.166;2022-12-18T17:45:37;10.63;;;4.23;;
76691;SDS011;65624;44.498;0.166;2022-12-18T17:59:26;8.80;;;4.20;;
76691;SDS011;65624;44.498;0.166;2022-12-18T18:13:18;10.83;;;7.00;;
76691;SDS011;65624;44.498;0.166;2022-12-18T18:27:09;7.37;;;4.53;;
76691;SDS011;65624;44.498;0.166;2022-12-18T18:40:59;6.37;;;4.27;;
76691;SDS011;65624;44.498;0.166;2022-12-18T18:54:50;10.73;;;4.33;;
76691;SDS011;65624;44.498;0.166;2022-12-18T19:08:42;8.47;;;4.97;;
76691;SDS011;65624;44.498;0.166;2022-12-18T19:22:32;10.57;;;5.33;;
76691;SDS011;65624;44.498;0.166;2022-12-18T19:36:23;8.87;;;5.77;;
76691;SDS011;65624;44.498;0.166;2022-12-18T19:50:13;7.93;;;4.40;;
76691;SDS011;65624;44.498;0.166;2022-12-18T20:04:03;15.17;;;7.17;;
76691;SDS011;65624;44.498;0.166;2022-12-18T20:17:54;19.03;;;4.90;;
76691;SDS011;65624;44.498;0.166;2022-12-18T20:31:44;11.03;;;5.33;;
76691;SDS011;65624;44.498;0.166;2022-12-18T20:45:36;13.00;;;5.83;;
76691;SDS011;65624;44.498;0.166;2022-12-18T20:59:26;15.90;;;4.93;;
76691;SDS011;65624;44.498;0.166;2022-12-18T21:13:15;33.17;;;9.10;;
76691;SDS011;65624;44.498;0.166;2022-12-18T21:27:05;6.33;;;4.13;;
76691;SDS011;65624;44.498;0.166;2022-12-18T21:40:56;10.57;;;5.40;;
76691;SDS011;65624;44.498;0.166;2022-12-18T21:54:48;11.33;;;5.20;;
76691;SDS011;65624;44.498;0.166;2022-12-18T22:08:37;15.57;;;5.37;;
76691;SDS011;65624;44.498;0.166;2022-12-18T22:22:28;13.33;;;6.13;;
76691;SDS011;65624;44.498;0.166;2022-12-18T22:36:18;12.17;;;4.53;;
76691;SDS011;65624;44.498;0.166;2022-12-18T22:50:10;10.93;;;5.63;;
76691;SDS011;65624;44.498;0.166;2022-12-18T23:03:59;8.03;;;3.83;;
76691;SDS011;65624;44.498;0.166;2022-12-18T23:17:49;13.43;;;5.70;;
76691;SDS011;65624;44.498;0.166;2022-12-18T23:31:41;12.57;;;4.83;;
76691;SDS011;65624;44.498;0.166;2022-12-18T23:45:35;8.80;;;4.00;;
76691;SDS011;65624;44.498;0.166;2022-12-18T23:59:23;9.33;;;3.53;;
